sensor_id;sensor_type;location;lat;lon;timestamp;P1;durP1;ratioP1;P2;durP2;ratioP2
39888;SDS011;25563;50.844;4.308;2023-07-02T08:10:14;29.83;;;14.77;;
39888;SDS011;25563;50.844;4.308;2023-07-02T08:12:40;27.85;;;13.75;;
39888;SDS011;25563;50.844;4.308;2023-07-02T08:15:06;24.63;;;13.98;;
39888;SDS011;25563;50.844;4.308;2023-07-02T08:17:34;35.45;;;13.40;;
39888;SDS011;25563;50.844;4.308;2023-07-02T08:20:00;24.45;;;12.73;;
39888;SDS011;25563;50.844;4.308;2023-07-02T08:22:27;22.73;;;13.20;;
39888;SDS011;25563;50.844;4.308;2023-07-02T08:24:52;27.45;;;13.57;;
39888;SDS011;25563;50.844;4.308;2023-07-02T08:27:19;23.63;;;13.60;;
39888;SDS011;25563;50.844;4.308;2023-07-02T08:29:48;34.05;;;14.45;;
39888;SDS011;25563;50.844;4.308;2023-07-02T08:32:17;37.25;;;14.88;;
39888;SDS011;25563;50.844;4.308;2023-07-02T08:34:43;32.37;;;15.00;;
39888;SDS011;25563;50.844;4.308;2023-07-02T08:37:09;26.20;;;14.60;;
39888;SDS011;25563;50.844;4.308;2023-07-02T08:39:34;33.20;;;16.02;;
39888;SDS011;25563;50.844;4.308;2023-07-02T08:42:02;36.95;;;16.05;;
39888;SDS011;25563;50.844;4.308;2023-07-02T08:44:28;35.95;;;15.93;;
39888;SDS011;25563;50.844;4.308;2023-07-02T08:46:54;34.83;;;15.48;;
39888;SDS011;25563;50.844;4.308;2023-07-02T08:49:21;33.38;;;14.98;;
39888;SDS011;25563;50.844;4.308;2023-07-02T08:51:47;35.13;;;15.07;;
39888;SDS011;25563;50.844;4.308;2023-07-02T08:54:13;26.67;;;13.95;;
39888;SDS011;25563;50.844;4.308;2023-07-02T08:56:42;32.05;;;14.38;;
39888;SDS011;25563;50.844;4.308;2023-07-02T08:59:08;20.23;;;12.75;;
39888;SDS011;25563;50.844;4.308;2023-07-02T09:01:51;32.85;;;14.52;;
39888;SDS011;25563;50.844;4.308;2023-07-02T09:04:24;28.98;;;14.32;;
39888;SDS011;25563;50.844;4.308;2023-07-02T09:07:02;23.65;;;12.40;;
39888;SDS011;25563;50.844;4.308;2023-07-02T09:09:32;26.05;;;12.95;;
39888;SDS011;25563;50.844;4.308;2023-07-02T09:11:58;27.77;;;13.85;;
39888;SDS011;25563;50.844;4.308;2023-07-02T09:14:29;24.85;;;13.40;;
39888;SDS011;25563;50.844;4.308;2023-07-02T09:17:06;31.58;;;13.23;;
39888;SDS011;25563;50.844;4.308;2023-07-02T09:19:34;30.15;;;13.43;;
39888;SDS011;25563;50.844;4.308;2023-07-02T09:22:01;30.00;;;13.38;;
39888;SDS011;25563;50.844;4.308;2023-07-02T09:24:28;25.70;;;13.80;;
39888;SDS011;25563;50.844;4.308;2023-07-02T09:26:56;23.65;;;14.68;;
39888;SDS011;25563;50.844;4.308;2023-07-02T09:31:54;23.15;;;12.65;;
39888;SDS011;25563;50.844;4.308;2023-07-02T09:34:31;31.02;;;12.88;;
39888;SDS011;25563;50.844;4.308;2023-07-02T09:36:59;29.52;;;13.63;;
39888;SDS011;25563;50.844;4.308;2023-07-02T09:39:29;23.00;;;12.05;;
39888;SDS011;25563;50.844;4.308;2023-07-02T09:41:57;26.13;;;13.18;;
39888;SDS011;25563;50.844;4.308;2023-07-02T09:44:26;27.77;;;12.75;;
39888;SDS011;25563;50.844;4.308;2023-07-02T09:46:56;23.80;;;12.63;;
39888;SDS011;25563;50.844;4.308;2023-07-02T09:49:38;20.85;;;11.95;;
39888;SDS011;25563;50.844;4.308;2023-07-02T09:54:34;21.48;;;12.05;;
39888;SDS011;25563;50.844;4.308;2023-07-02T09:57:01;21.65;;;13.00;;
39888;SDS011;25563;50.844;4.308;2023-07-02T09:59:27;21.45;;;12.45;;
39888;SDS011;25563;50.844;4.308;2023-07-02T10:01:53;28.10;;;13.77;;
39888;SDS011;25563;50.844;4.308;2023-07-02T10:04:20;31.15;;;13.38;;
39888;SDS011;25563;50.844;4.308;2023-07-02T10:06:48;23.10;;;13.00;;
39888;SDS011;25563;50.844;4.308;2023-07-02T10:09:16;23.55;;;13.25;;
39888;SDS011;25563;50.844;4.308;2023-07-02T10:11:43;23.00;;;12.70;;
39888;SDS011;25563;50.844;4.308;2023-07-02T10:14:09;25.45;;;12.90;;
39888;SDS011;25563;50.844;4.308;2023-07-02T10:16:47;25.25;;;12.68;;
39888;SDS011;25563;50.844;4.308;2023-07-02T10:19:14;23.85;;;11.93;;
39888;SDS011;25563;50.844;4.308;2023-07-02T10:21:40;24.17;;;11.60;;
39888;SDS011;25563;50.844;4.308;2023-07-02T10:24:10;27.05;;;12.15;;
39888;SDS011;25563;50.844;4.308;2023-07-02T10:26:37;27.73;;;12.68;;
39888;SDS011;25563;50.844;4.308;2023-07-02T10:29:02;21.08;;;12.57;;
39888;SDS011;25563;50.844;4.308;2023-07-02T10:31:29;28.40;;;12.55;;
39888;SDS011;25563;50.844;4.308;2023-07-02T10:33:55;18.52;;;11.50;;
39888;SDS011;25563;50.844;4.308;2023-07-02T10:36:21;29.85;;;12.68;;
39888;SDS011;25563;50.844;4.308;2023-07-02T10:38:51;19.95;;;12.23;;
39888;SDS011;25563;50.844;4.308;2023-07-02T10:41:24;19.38;;;11.27;;
39888;SDS011;25563;50.844;4.308;2023-07-02T10:43:52;23.48;;;11.00;;
39888;SDS011;25563;50.844;4.308;2023-07-02T10:46:21;24.73;;;12.02;;
39888;SDS011;25563;50.844;4.308;2023-07-02T10:48:51;22.45;;;12.82;;
39888;SDS011;25563;50.844;4.308;2023-07-02T10:51:20;21.98;;;10.93;;
39888;SDS011;25563;50.844;4.308;2023-07-02T10:53:55;17.63;;;11.50;;
39888;SDS011;25563;50.844;4.308;2023-07-02T10:56:23;28.95;;;11.25;;
39888;SDS011;25563;50.844;4.308;2023-07-02T10:58:50;22.45;;;11.65;;
39888;SDS011;25563;50.844;4.308;2023-07-02T11:01:23;26.52;;;11.23;;
39888;SDS011;25563;50.844;4.308;2023-07-02T11:04:00;18.20;;;10.68;;
39888;SDS011;25563;50.844;4.308;2023-07-02T11:06:30;30.77;;;11.35;;
39888;SDS011;25563;50.844;4.308;2023-07-02T11:08:58;25.77;;;11.45;;
39888;SDS011;25563;50.844;4.308;2023-07-02T11:11:24;15.25;;;10.07;;
39888;SDS011;25563;50.844;4.308;2023-07-02T11:13:51;20.92;;;10.45;;
39888;SDS011;25563;50.844;4.308;2023-07-02T11:16:27;17.48;;;9.63;;
39888;SDS011;25563;50.844;4.308;2023-07-02T11:19:07;19.95;;;10.38;;
39888;SDS011;25563;50.844;4.308;2023-07-02T11:21:34;26.65;;;10.75;;
39888;SDS011;25563;50.844;4.308;2023-07-02T11:24:01;26.52;;;11.52;;
39888;SDS011;25563;50.844;4.308;2023-07-02T11:26:34;29.17;;;12.18;;
39888;SDS011;25563;50.844;4.308;2023-07-02T11:29:03;19.83;;;10.98;;
39888;SDS011;25563;50.844;4.308;2023-07-02T11:31:35;18.90;;;9.95;;
39888;SDS011;25563;50.844;4.308;2023-07-02T11:34:01;23.02;;;11.40;;
39888;SDS011;25563;50.844;4.308;2023-07-02T11:36:39;16.45;;;10.77;;
39888;SDS011;25563;50.844;4.308;2023-07-02T11:39:05;25.08;;;11.02;;
39888;SDS011;25563;50.844;4.308;2023-07-02T11:41:41;18.40;;;10.68;;
39888;SDS011;25563;50.844;4.308;2023-07-02T11:44:08;17.45;;;11.82;;
39888;SDS011;25563;50.844;4.308;2023-07-02T11:46:33;24.08;;;11.27;;
39888;SDS011;25563;50.844;4.308;2023-07-02T11:49:01;23.63;;;12.10;;
39888;SDS011;25563;50.844;4.308;2023-07-02T11:51:27;25.35;;;11.25;;
39888;SDS011;25563;50.844;4.308;2023-07-02T11:53:53;20.25;;;9.95;;
39888;SDS011;25563;50.844;4.308;2023-07-02T11:56:19;21.58;;;11.18;;
39888;SDS011;25563;50.844;4.308;2023-07-02T11:58:44;19.33;;;11.18;;
39888;SDS011;25563;50.844;4.308;2023-07-02T12:01:10;20.05;;;11.07;;
39888;SDS011;25563;50.844;4.308;2023-07-02T12:03:36;19.20;;;9.43;;
39888;SDS011;25563;50.844;4.308;2023-07-02T12:06:02;15.18;;;9.38;;
39888;SDS011;25563;50.844;4.308;2023-07-02T12:08:28;11.88;;;9.18;;
39888;SDS011;25563;50.844;4.308;2023-07-02T12:10:53;14.15;;;9.90;;
39888;SDS011;25563;50.844;4.308;2023-07-02T12:13:19;17.95;;;10.20;;
39888;SDS011;25563;50.844;4.308;2023-07-02T12:15:48;18.52;;;9.93;;
39888;SDS011;25563;50.844;4.308;2023-07-02T12:18:16;15.48;;;10.43;;
39888;SDS011;25563;50.844;4.308;2023-07-02T12:20:42;18.50;;;10.27;;
39888;SDS011;25563;50.844;4.308;2023-07-02T12:23:09;13.48;;;9.70;;
39888;SDS011;25563;50.844;4.308;2023-07-02T12:25:36;14.50;;;8.85;;
39888;SDS011;25563;50.844;4.308;2023-07-02T12:28:05;22.48;;;9.88;;
39888;SDS011;25563;50.844;4.308;2023-07-02T12:32:57;14.15;;;9.20;;
39888;SDS011;25563;50.844;4.308;2023-07-02T12:35:24;16.83;;;9.60;;
39888;SDS011;25563;50.844;4.308;2023-07-02T12:37:50;13.82;;;9.02;;
39888;SDS011;25563;50.844;4.308;2023-07-02T12:40:18;15.82;;;9.32;;
39888;SDS011;25563;50.844;4.308;2023-07-02T12:42:46;22.83;;;10.18;;
39888;SDS011;25563;50.844;4.308;2023-07-02T12:45:15;14.45;;;9.15;;
39888;SDS011;25563;50.844;4.308;2023-07-02T12:47:41;15.88;;;9.38;;
39888;SDS011;25563;50.844;4.308;2023-07-02T12:50:08;12.65;;;9.32;;
39888;SDS011;25563;50.844;4.308;2023-07-02T12:52:34;21.50;;;9.88;;
39888;SDS011;25563;50.844;4.308;2023-07-02T12:55:00;13.23;;;8.40;;
39888;SDS011;25563;50.844;4.308;2023-07-02T12:57:27;10.27;;;8.63;;
39888;SDS011;25563;50.844;4.308;2023-07-02T12:59:53;18.08;;;8.80;;
39888;SDS011;25563;50.844;4.308;2023-07-02T13:02:20;16.67;;;9.32;;
39888;SDS011;25563;50.844;4.308;2023-07-02T13:04:46;12.35;;;8.55;;
39888;SDS011;25563;50.844;4.308;2023-07-02T13:07:12;12.82;;;8.75;;
39888;SDS011;25563;50.844;4.308;2023-07-02T13:09:38;17.30;;;9.23;;
39888;SDS011;25563;50.844;4.308;2023-07-02T13:12:04;13.45;;;9.35;;
39888;SDS011;25563;50.844;4.308;2023-07-02T13:14:31;11.75;;;8.43;;
39888;SDS011;25563;50.844;4.308;2023-07-02T13:16:57;16.48;;;9.18;;
39888;SDS011;25563;50.844;4.308;2023-07-02T13:19:24;15.52;;;9.40;;
39888;SDS011;25563;50.844;4.308;2023-07-02T13:21:51;12.73;;;8.68;;
39888;SDS011;25563;50.844;4.308;2023-07-02T13:24:17;14.77;;;9.02;;
39888;SDS011;25563;50.844;4.308;2023-07-02T13:26:42;13.85;;;8.68;;
39888;SDS011;25563;50.844;4.308;2023-07-02T13:29:08;14.40;;;8.82;;
39888;SDS011;25563;50.844;4.308;2023-07-02T13:31:34;9.68;;;7.88;;
39888;SDS011;25563;50.844;4.308;2023-07-02T13:34:00;12.60;;;8.43;;
39888;SDS011;25563;50.844;4.308;2023-07-02T13:36:26;14.57;;;8.70;;
39888;SDS011;25563;50.844;4.308;2023-07-02T13:38:53;15.75;;;9.05;;
39888;SDS011;25563;50.844;4.308;2023-07-02T13:41:21;18.98;;;9.43;;
39888;SDS011;25563;50.844;4.308;2023-07-02T13:43:46;11.98;;;8.23;;
39888;SDS011;25563;50.844;4.308;2023-07-02T13:46:12;17.55;;;9.07;;
39888;SDS011;25563;50.844;4.308;2023-07-02T13:48:38;16.15;;;8.68;;
39888;SDS011;25563;50.844;4.308;2023-07-02T13:51:04;14.30;;;9.38;;
39888;SDS011;25563;50.844;4.308;2023-07-02T13:53:30;15.77;;;8.52;;
39888;SDS011;25563;50.844;4.308;2023-07-02T13:55:57;12.77;;;8.43;;
39888;SDS011;25563;50.844;4.308;2023-07-02T13:58:23;13.23;;;8.40;;
39888;SDS011;25563;50.844;4.308;2023-07-02T14:00:49;12.23;;;7.35;;
39888;SDS011;25563;50.844;4.308;2023-07-02T14:03:15;16.20;;;9.07;;
39888;SDS011;25563;50.844;4.308;2023-07-02T14:05:40;15.40;;;8.73;;
39888;SDS011;25563;50.844;4.308;2023-07-02T14:08:06;17.80;;;8.90;;
39888;SDS011;25563;50.844;4.308;2023-07-02T14:10:33;16.63;;;9.20;;
39888;SDS011;25563;50.844;4.308;2023-07-02T14:12:59;12.98;;;8.45;;
39888;SDS011;25563;50.844;4.308;2023-07-02T14:15:26;11.27;;;7.85;;
39888;SDS011;25563;50.844;4.308;2023-07-02T14:17:52;11.38;;;7.50;;
39888;SDS011;25563;50.844;4.308;2023-07-02T14:20:19;19.48;;;8.15;;
39888;SDS011;25563;50.844;4.308;2023-07-02T14:22:44;14.27;;;8.23;;
39888;SDS011;25563;50.844;4.308;2023-07-02T14:25:10;12.93;;;7.47;;
39888;SDS011;25563;50.844;4.308;2023-07-02T14:27:36;12.20;;;7.72;;
39888;SDS011;25563;50.844;4.308;2023-07-02T14:30:02;11.80;;;7.78;;
39888;SDS011;25563;50.844;4.308;2023-07-02T14:32:33;11.07;;;7.88;;
39888;SDS011;25563;50.844;4.308;2023-07-02T14:35:00;13.63;;;8.20;;
39888;SDS011;25563;50.844;4.308;2023-07-02T14:37:26;11.27;;;8.13;;
39888;SDS011;25563;50.844;4.308;2023-07-02T14:39:52;13.30;;;7.50;;
39888;SDS011;25563;50.844;4.308;2023-07-02T14:42:17;15.55;;;7.43;;
39888;SDS011;25563;50.844;4.308;2023-07-02T14:44:43;13.02;;;8.13;;
39888;SDS011;25563;50.844;4.308;2023-07-02T14:47:09;12.25;;;7.88;;
39888;SDS011;25563;50.844;4.308;2023-07-02T14:49:35;9.05;;;7.55;;
39888;SDS011;25563;50.844;4.308;2023-07-02T14:52:02;11.77;;;8.13;;
39888;SDS011;25563;50.844;4.308;2023-07-02T14:54:28;10.60;;;7.75;;
39888;SDS011;25563;50.844;4.308;2023-07-02T14:56:55;8.57;;;7.05;;
39888;SDS011;25563;50.844;4.308;2023-07-02T14:59:20;14.10;;;7.22;;
39888;SDS011;25563;50.844;4.308;2023-07-02T15:01:46;11.35;;;6.40;;
39888;SDS011;25563;50.844;4.308;2023-07-02T15:04:12;9.25;;;7.22;;
39888;SDS011;25563;50.844;4.308;2023-07-02T15:06:38;11.82;;;7.38;;
39888;SDS011;25563;50.844;4.308;2023-07-02T15:09:03;10.52;;;7.40;;
39888;SDS011;25563;50.844;4.308;2023-07-02T15:11:29;14.13;;;7.82;;
39888;SDS011;25563;50.844;4.308;2023-07-02T15:13:55;16.90;;;7.70;;
39888;SDS011;25563;50.844;4.308;2023-07-02T15:16:23;14.13;;;6.90;;
39888;SDS011;25563;50.844;4.308;2023-07-02T15:18:49;12.38;;;6.95;;
39888;SDS011;25563;50.844;4.308;2023-07-02T15:21:18;13.13;;;7.25;;
39888;SDS011;25563;50.844;4.308;2023-07-02T15:23:45;16.88;;;8.07;;
39888;SDS011;25563;50.844;4.308;2023-07-02T15:26:12;17.08;;;7.95;;
39888;SDS011;25563;50.844;4.308;2023-07-02T15:28:40;12.07;;;8.52;;
39888;SDS011;25563;50.844;4.308;2023-07-02T15:31:07;13.55;;;7.13;;
39888;SDS011;25563;50.844;4.308;2023-07-02T15:33:35;12.05;;;7.63;;
39888;SDS011;25563;50.844;4.308;2023-07-02T15:36:02;17.08;;;8.13;;
39888;SDS011;25563;50.844;4.308;2023-07-02T15:38:29;16.55;;;8.38;;
39888;SDS011;25563;50.844;4.308;2023-07-02T15:41:05;16.98;;;9.18;;
39888;SDS011;25563;50.844;4.308;2023-07-02T15:43:36;19.98;;;8.88;;
39888;SDS011;25563;50.844;4.308;2023-07-02T15:46:02;15.88;;;7.28;;
39888;SDS011;25563;50.844;4.308;2023-07-02T15:48:29;14.45;;;7.75;;
39888;SDS011;25563;50.844;4.308;2023-07-02T15:50:55;17.20;;;7.57;;
39888;SDS011;25563;50.844;4.308;2023-07-02T15:53:21;16.63;;;7.18;;
39888;SDS011;25563;50.844;4.308;2023-07-02T15:55:53;19.42;;;7.90;;
39888;SDS011;25563;50.844;4.308;2023-07-02T15:58:26;14.13;;;8.45;;
39888;SDS011;25563;50.844;4.308;2023-07-02T16:00:53;15.27;;;8.10;;
39888;SDS011;25563;50.844;4.308;2023-07-02T16:03:20;15.95;;;8.25;;
39888;SDS011;25563;50.844;4.308;2023-07-02T16:05:46;14.57;;;7.80;;
39888;SDS011;25563;50.844;4.308;2023-07-02T16:08:12;21.35;;;8.02;;
39888;SDS011;25563;50.844;4.308;2023-07-02T16:10:44;15.77;;;7.32;;
39888;SDS011;25563;50.844;4.308;2023-07-02T16:13:11;16.45;;;6.97;;
39888;SDS011;25563;50.844;4.308;2023-07-02T16:15:38;10.80;;;5.95;;
39888;SDS011;25563;50.844;4.308;2023-07-02T16:18:07;9.93;;;6.45;;
39888;SDS011;25563;50.844;4.308;2023-07-02T16:20:33;10.70;;;6.10;;
39888;SDS011;25563;50.844;4.308;2023-07-02T16:23:00;12.38;;;6.70;;
39888;SDS011;25563;50.844;4.308;2023-07-02T16:25:27;17.42;;;5.97;;
39888;SDS011;25563;50.844;4.308;2023-07-02T16:27:52;10.90;;;5.68;;
39888;SDS011;25563;50.844;4.308;2023-07-02T16:30:18;14.18;;;6.60;;
39888;SDS011;25563;50.844;4.308;2023-07-02T16:32:45;12.50;;;5.25;;
39888;SDS011;25563;50.844;4.308;2023-07-02T16:35:10;10.70;;;5.55;;
39888;SDS011;25563;50.844;4.308;2023-07-02T16:37:36;10.18;;;5.03;;
39888;SDS011;25563;50.844;4.308;2023-07-02T16:40:04;15.10;;;5.18;;
39888;SDS011;25563;50.844;4.308;2023-07-02T16:42:30;10.88;;;5.32;;
39888;SDS011;25563;50.844;4.308;2023-07-02T16:44:56;12.90;;;6.00;;
39888;SDS011;25563;50.844;4.308;2023-07-02T16:47:24;10.18;;;6.03;;
39888;SDS011;25563;50.844;4.308;2023-07-02T16:49:50;13.55;;;5.93;;
39888;SDS011;25563;50.844;4.308;2023-07-02T16:52:15;13.05;;;5.57;;
39888;SDS011;25563;50.844;4.308;2023-07-02T16:54:41;18.02;;;5.43;;
39888;SDS011;25563;50.844;4.308;2023-07-02T16:57:07;8.73;;;4.68;;
39888;SDS011;25563;50.844;4.308;2023-07-02T16:59:34;12.73;;;4.95;;
39888;SDS011;25563;50.844;4.308;2023-07-02T17:02:02;12.82;;;6.10;;
39888;SDS011;25563;50.844;4.308;2023-07-02T17:04:30;13.93;;;4.80;;
39888;SDS011;25563;50.844;4.308;2023-07-02T17:06:56;16.35;;;6.15;;
39888;SDS011;25563;50.844;4.308;2023-07-02T17:09:28;8.43;;;5.17;;
39888;SDS011;25563;50.844;4.308;2023-07-02T17:12:06;14.10;;;6.10;;
39888;SDS011;25563;50.844;4.308;2023-07-02T17:14:37;12.82;;;5.90;;
39888;SDS011;25563;50.844;4.308;2023-07-02T17:17:06;8.45;;;4.50;;
39888;SDS011;25563;50.844;4.308;2023-07-02T17:19:37;9.05;;;5.18;;
39888;SDS011;25563;50.844;4.308;2023-07-02T17:22:10;10.02;;;4.35;;
39888;SDS011;25563;50.844;4.308;2023-07-02T17:24:38;9.45;;;4.53;;
39888;SDS011;25563;50.844;4.308;2023-07-02T17:27:06;9.50;;;4.03;;
39888;SDS011;25563;50.844;4.308;2023-07-02T17:29:33;10.13;;;4.40;;
39888;SDS011;25563;50.844;4.308;2023-07-02T17:32:00;10.63;;;4.00;;
39888;SDS011;25563;50.844;4.308;2023-07-02T17:34:29;7.65;;;3.80;;
39888;SDS011;25563;50.844;4.308;2023-07-02T17:36:59;14.82;;;4.43;;
39888;SDS011;25563;50.844;4.308;2023-07-02T17:39:31;16.92;;;4.53;;
39888;SDS011;25563;50.844;4.308;2023-07-02T17:41:58;13.05;;;5.07;;
39888;SDS011;25563;50.844;4.308;2023-07-02T17:44:32;9.70;;;5.18;;
39888;SDS011;25563;50.844;4.308;2023-07-02T17:47:03;9.30;;;4.18;;
39888;SDS011;25563;50.844;4.308;2023-07-02T17:49:32;7.22;;;4.55;;
39888;SDS011;25563;50.844;4.308;2023-07-02T17:51:59;11.70;;;4.32;;
39888;SDS011;25563;50.844;4.308;2023-07-02T17:54:31;16.35;;;4.65;;
39888;SDS011;25563;50.844;4.308;2023-07-02T17:57:05;14.50;;;4.80;;
39888;SDS011;25563;50.844;4.308;2023-07-02T17:59:32;13.23;;;4.63;;
39888;SDS011;25563;50.844;4.308;2023-07-02T18:01:59;7.78;;;3.85;;
39888;SDS011;25563;50.844;4.308;2023-07-02T18:04:26;10.52;;;4.22;;
39888;SDS011;25563;50.844;4.308;2023-07-02T18:06:52;15.50;;;4.53;;
39888;SDS011;25563;50.844;4.308;2023-07-02T18:09:31;16.90;;;9.27;;
39888;SDS011;25563;50.844;4.308;2023-07-02T18:11:57;15.27;;;6.20;;
39888;SDS011;25563;50.844;4.308;2023-07-02T18:14:29;16.52;;;4.00;;
39888;SDS011;25563;50.844;4.308;2023-07-02T18:16:55;11.52;;;5.07;;
39888;SDS011;25563;50.844;4.308;2023-07-02T18:19:22;18.33;;;6.22;;
39888;SDS011;25563;50.844;4.308;2023-07-02T18:21:52;11.48;;;4.10;;
39888;SDS011;25563;50.844;4.308;2023-07-02T18:24:19;13.52;;;3.75;;
39888;SDS011;25563;50.844;4.308;2023-07-02T18:26:45;19.48;;;4.00;;
39888;SDS011;25563;50.844;4.308;2023-07-02T18:29:11;14.05;;;3.20;;
39888;SDS011;25563;50.844;4.308;2023-07-02T18:31:37;24.13;;;10.55;;
39888;SDS011;25563;50.844;4.308;2023-07-02T18:34:03;13.27;;;4.78;;
39888;SDS011;25563;50.844;4.308;2023-07-02T18:36:29;18.13;;;6.50;;
39888;SDS011;25563;50.844;4.308;2023-07-02T18:38:55;17.65;;;5.53;;
39888;SDS011;25563;50.844;4.308;2023-07-02T18:41:21;19.58;;;8.95;;
39888;SDS011;25563;50.844;4.308;2023-07-02T18:43:46;18.05;;;9.57;;
39888;SDS011;25563;50.844;4.308;2023-07-02T18:46:12;22.50;;;11.52;;
39888;SDS011;25563;50.844;4.308;2023-07-02T18:48:38;13.20;;;4.13;;
39888;SDS011;25563;50.844;4.308;2023-07-02T18:51:06;5.95;;;2.95;;
39888;SDS011;25563;50.844;4.308;2023-07-02T18:53:33;17.00;;;4.40;;
39888;SDS011;25563;50.844;4.308;2023-07-02T18:56:03;23.13;;;6.15;;
39888;SDS011;25563;50.844;4.308;2023-07-02T18:58:32;15.20;;;4.03;;
39888;SDS011;25563;50.844;4.308;2023-07-02T19:00:59;11.50;;;5.40;;
39888;SDS011;25563;50.844;4.308;2023-07-02T19:03:30;16.25;;;5.38;;
39888;SDS011;25563;50.844;4.308;2023-07-02T19:05:56;13.32;;;3.75;;
39888;SDS011;25563;50.844;4.308;2023-07-02T19:08:29;18.75;;;5.60;;
39888;SDS011;25563;50.844;4.308;2023-07-02T19:10:59;10.13;;;4.10;;
39888;SDS011;25563;50.844;4.308;2023-07-02T19:13:29;10.05;;;4.05;;
39888;SDS011;25563;50.844;4.308;2023-07-02T19:16:01;17.17;;;4.95;;
39888;SDS011;25563;50.844;4.308;2023-07-02T19:18:28;12.88;;;4.28;;
39888;SDS011;25563;50.844;4.308;2023-07-02T19:20:57;14.50;;;4.15;;
39888;SDS011;25563;50.844;4.308;2023-07-02T19:23:30;18.95;;;5.53;;
39888;SDS011;25563;50.844;4.308;2023-07-02T19:25:56;11.80;;;3.88;;
39888;SDS011;25563;50.844;4.308;2023-07-02T19:28:22;12.05;;;3.47;;
39888;SDS011;25563;50.844;4.308;2023-07-02T19:30:52;10.90;;;3.55;;
39888;SDS011;25563;50.844;4.308;2023-07-02T19:33:22;13.55;;;3.75;;
39888;SDS011;25563;50.844;4.308;2023-07-02T19:35:50;11.48;;;4.05;;
39888;SDS011;25563;50.844;4.308;2023-07-02T19:38:19;12.25;;;4.25;;
39888;SDS011;25563;50.844;4.308;2023-07-02T19:40:54;11.93;;;3.53;;
39888;SDS011;25563;50.844;4.308;2023-07-02T19:43:21;12.73;;;4.15;;
39888;SDS011;25563;50.844;4.308;2023-07-02T19:45:56;12.25;;;3.60;;
39888;SDS011;25563;50.844;4.308;2023-07-02T19:48:23;16.40;;;4.18;;
39888;SDS011;25563;50.844;4.308;2023-07-02T19:50:56;11.27;;;4.03;;
39888;SDS011;25563;50.844;4.308;2023-07-02T19:53:28;16.88;;;4.20;;
39888;SDS011;25563;50.844;4.308;2023-07-02T19:55:55;12.63;;;3.63;;
39888;SDS011;25563;50.844;4.308;2023-07-02T19:58:21;10.82;;;3.72;;
39888;SDS011;25563;50.844;4.308;2023-07-02T20:00:47;10.45;;;4.43;;
39888;SDS011;25563;50.844;4.308;2023-07-02T20:03:13;14.32;;;4.28;;
39888;SDS011;25563;50.844;4.308;2023-07-02T20:05:39;11.55;;;4.18;;
39888;SDS011;25563;50.844;4.308;2023-07-02T20:08:05;14.07;;;3.55;;
39888;SDS011;25563;50.844;4.308;2023-07-02T20:10:32;11.27;;;4.00;;
39888;SDS011;25563;50.844;4.308;2023-07-02T20:12:58;12.95;;;3.33;;
39888;SDS011;25563;50.844;4.308;2023-07-02T20:15:24;15.07;;;4.05;;
39888;SDS011;25563;50.844;4.308;2023-07-02T20:17:50;9.65;;;3.38;;
39888;SDS011;25563;50.844;4.308;2023-07-02T20:20:19;10.55;;;3.60;;
39888;SDS011;25563;50.844;4.308;2023-07-02T20:25:22;17.88;;;4.45;;
39888;SDS011;25563;50.844;4.308;2023-07-02T20:27:50;16.25;;;3.42;;
39888;SDS011;25563;50.844;4.308;2023-07-02T20:30:16;14.07;;;3.88;;
39888;SDS011;25563;50.844;4.308;2023-07-02T20:32:54;15.13;;;3.65;;
39888;SDS011;25563;50.844;4.308;2023-07-02T20:35:31;16.48;;;4.25;;
39888;SDS011;25563;50.844;4.308;2023-07-02T20:38:15;11.15;;;3.25;;
39888;SDS011;25563;50.844;4.308;2023-07-02T20:40:43;9.90;;;3.88;;
39888;SDS011;25563;50.844;4.308;2023-07-02T20:43:08;16.08;;;4.75;;
39888;SDS011;25563;50.844;4.308;2023-07-02T20:45:39;10.18;;;3.60;;
39888;SDS011;25563;50.844;4.308;2023-07-02T20:48:05;8.60;;;2.83;;
39888;SDS011;25563;50.844;4.308;2023-07-02T20:50:34;8.60;;;4.32;;
39888;SDS011;25563;50.844;4.308;2023-07-02T20:53:01;19.58;;;3.92;;
39888;SDS011;25563;50.844;4.308;2023-07-02T20:55:29;11.82;;;3.88;;
39888;SDS011;25563;50.844;4.308;2023-07-02T20:57:56;15.77;;;4.70;;
39888;SDS011;25563;50.844;4.308;2023-07-02T21:00:22;8.07;;;3.50;;
39888;SDS011;25563;50.844;4.308;2023-07-02T21:02:48;12.50;;;3.97;;
39888;SDS011;25563;50.844;4.308;2023-07-02T21:05:15;14.80;;;4.57;;
39888;SDS011;25563;50.844;4.308;2023-07-02T21:07:41;21.80;;;4.95;;
39888;SDS011;25563;50.844;4.308;2023-07-02T21:10:07;13.95;;;3.47;;
39888;SDS011;25563;50.844;4.308;2023-07-02T21:12:33;20.80;;;4.38;;
39888;SDS011;25563;50.844;4.308;2023-07-02T21:14:59;18.80;;;3.97;;
39888;SDS011;25563;50.844;4.308;2023-07-02T21:17:25;14.40;;;4.47;;
39888;SDS011;25563;50.844;4.308;2023-07-02T21:19:54;13.05;;;3.42;;
39888;SDS011;25563;50.844;4.308;2023-07-02T21:22:20;22.73;;;8.57;;
39888;SDS011;25563;50.844;4.308;2023-07-02T21:24:48;27.40;;;4.60;;
39888;SDS011;25563;50.844;4.308;2023-07-02T21:27:15;16.60;;;4.78;;
39888;SDS011;25563;50.844;4.308;2023-07-02T21:29:41;16.92;;;4.32;;
39888;SDS011;25563;50.844;4.308;2023-07-02T21:32:13;17.50;;;4.43;;
39888;SDS011;25563;50.844;4.308;2023-07-02T21:34:39;13.43;;;3.65;;
39888;SDS011;25563;50.844;4.308;2023-07-02T21:37:07;13.02;;;3.70;;
39888;SDS011;25563;50.844;4.308;2023-07-02T21:39:33;15.40;;;3.40;;
39888;SDS011;25563;50.844;4.308;2023-07-02T21:41:58;18.67;;;3.95;;
39888;SDS011;25563;50.844;4.308;2023-07-02T21:44:24;16.52;;;4.90;;
39888;SDS011;25563;50.844;4.308;2023-07-02T21:46:50;13.90;;;3.70;;
39888;SDS011;25563;50.844;4.308;2023-07-02T21:49:17;16.50;;;4.32;;
39888;SDS011;25563;50.844;4.308;2023-07-02T21:51:43;18.73;;;4.63;;
39888;SDS011;25563;50.844;4.308;2023-07-02T21:54:08;17.60;;;3.67;;
39888;SDS011;25563;50.844;4.308;2023-07-02T21:56:34;25.27;;;4.82;;
39888;SDS011;25563;50.844;4.308;2023-07-02T21:59:05;17.10;;;4.10;;
39888;SDS011;25563;50.844;4.308;2023-07-02T22:01:30;18.88;;;4.25;;
39888;SDS011;25563;50.844;4.308;2023-07-02T22:03:56;18.73;;;4.63;;
39888;SDS011;25563;50.844;4.308;2023-07-02T22:06:24;19.80;;;3.88;;
39888;SDS011;25563;50.844;4.308;2023-07-02T22:08:50;21.42;;;4.22;;
39888;SDS011;25563;50.844;4.308;2023-07-02T22:11:17;18.55;;;4.45;;
39888;SDS011;25563;50.844;4.308;2023-07-02T22:13:42;22.80;;;4.40;;
39888;SDS011;25563;50.844;4.308;2023-07-02T22:16:08;20.45;;;4.57;;
39888;SDS011;25563;50.844;4.308;2023-07-02T22:18:35;18.55;;;4.22;;
39888;SDS011;25563;50.844;4.308;2023-07-02T22:21:04;21.70;;;4.78;;
39888;SDS011;25563;50.844;4.308;2023-07-02T22:23:31;18.98;;;3.83;;
39888;SDS011;25563;50.844;4.308;2023-07-02T22:25:58;24.23;;;5.05;;
39888;SDS011;25563;50.844;4.308;2023-07-02T22:28:24;18.33;;;4.65;;
39888;SDS011;25563;50.844;4.308;2023-07-02T22:30:55;17.25;;;5.55;;
39888;SDS011;25563;50.844;4.308;2023-07-02T22:33:21;25.20;;;5.07;;
39888;SDS011;25563;50.844;4.308;2023-07-02T22:35:47;25.98;;;5.30;;
39888;SDS011;25563;50.844;4.308;2023-07-02T22:38:13;25.67;;;5.07;;
39888;SDS011;25563;50.844;4.308;2023-07-02T22:40:41;20.73;;;4.50;;
39888;SDS011;25563;50.844;4.308;2023-07-02T22:43:07;15.13;;;4.67;;
39888;SDS011;25563;50.844;4.308;2023-07-02T22:45:33;19.98;;;5.20;;
39888;SDS011;25563;50.844;4.308;2023-07-02T22:48:02;19.13;;;4.18;;
39888;SDS011;25563;50.844;4.308;2023-07-02T22:50:31;16.00;;;4.15;;
39888;SDS011;25563;50.844;4.308;2023-07-02T22:52:57;21.00;;;4.72;;